Terminal Aerodrome Forecast
Issued by NWS

Home | Current Version | Previous Version | Text Only | Print | Product List | Glossary On
Versions: 1 2 3 4 5 6 7 8 9 10 11 12 13 14 15 16 17 18 19
000
FTUS41 KILN 031200 AAA
TAFLUK
TAF AMD
KLUK 031224Z 0312/0412 00000KT P6SM BKN250
     FM031400 21008KT P6SM FEW080 SCT250
     FM031800 21012KT P6SM SCT080 SCT200
     FM040000 VRB02KT P6SM SKC=

USA.gov is the U.S. government's official web portal to all federal, state and local government web resources and services.